createdAt,value
2017-09-16T00:00:27.014Z,10.29
2017-09-16T00:02:56.093Z,10.53
2017-09-16T00:05:25.189Z,10.69
2017-09-16T00:07:54.302Z,10.68
2017-09-16T00:10:23.393Z,10.62
2017-09-16T00:12:52.486Z,10.69
2017-09-16T00:15:21.595Z,10.75
2017-09-16T00:17:50.678Z,10.66
2017-09-16T00:20:19.778Z,10.45
2017-09-16T00:22:48.895Z,10.35
2017-09-16T00:25:17.215Z,10.40
2017-09-16T00:27:45.566Z,10.48
2017-09-16T00:30:13.887Z,10.55
2017-09-16T00:32:42.206Z,10.56
2017-09-16T00:35:11.317Z,10.51
2017-09-16T00:37:39.637Z,10.65
2017-09-16T00:40:08.746Z,10.39
2017-09-16T00:42:37.074Z,10.51
2017-09-16T00:45:05.393Z,10.48
2017-09-16T00:47:33.742Z,10.47
2017-09-16T00:50:02.059Z,10.52
2017-09-16T00:52:30.378Z,10.57
2017-09-16T00:54:59.876Z,10.52
2017-09-16T00:57:29.068Z,10.36
2017-09-16T00:59:58.475Z,10.26
2017-09-16T01:02:27.597Z,10.26
2017-09-16T01:04:56.707Z,10.28
2017-09-16T01:07:25.081Z,10.30
2017-09-16T01:09:53.430Z,10.16
2017-09-16T01:12:21.774Z,10.02
2017-09-16T01:14:50.100Z,10.09
2017-09-16T01:17:19.206Z,10.09
2017-09-16T01:19:48.296Z,10.17
2017-09-16T01:22:17.395Z,10.15
2017-09-16T01:24:46.520Z,10.11
2017-09-16T01:27:14.856Z,10.00
2017-09-16T01:29:43.186Z,10.03
2017-09-16T01:32:11.543Z,10.17
2017-09-16T01:34:40.630Z,10.03
2017-09-16T01:37:09.714Z,10.15
2017-09-16T01:39:38.062Z,10.02
2017-09-16T01:42:06.377Z,10.08
2017-09-16T01:44:34.690Z,9.88
2017-09-16T01:47:03.025Z,9.98
2017-09-16T01:49:31.338Z,10.13
2017-09-16T01:51:59.745Z,10.19
2017-09-16T01:54:28.062Z,10.20
2017-09-16T01:56:56.378Z,10.18
2017-09-16T01:59:25.489Z,10.04
2017-09-16T02:01:54.673Z,9.94
2017-09-16T02:04:23.750Z,10.03
2017-09-16T02:06:52.087Z,9.91
2017-09-16T02:09:20.401Z,10.02
2017-09-16T02:11:48.751Z,10.14
2017-09-16T02:14:17.844Z,10.19
2017-09-16T02:16:46.150Z,10.24
2017-09-16T02:19:14.502Z,10.09
2017-09-16T02:21:42.817Z,10.02
2017-09-16T02:24:11.122Z,9.78
2017-09-16T02:26:40.227Z,9.87
2017-09-16T02:29:09.299Z,9.76
2017-09-16T02:31:37.684Z,9.94
2017-09-16T02:34:05.983Z,10.03
2017-09-16T02:36:35.058Z,10.09
2017-09-16T02:39:04.189Z,10.17
2017-09-16T02:41:32.506Z,10.25
2017-09-16T02:44:00.867Z,10.31
2017-09-16T02:46:29.192Z,10.31
2017-09-16T02:48:57.511Z,10.17
2017-09-16T02:51:25.856Z,10.03
2017-09-16T02:53:54.170Z,10.06
2017-09-16T02:56:22.509Z,9.99
2017-09-16T02:58:50.827Z,10.02
2017-09-16T03:01:19.169Z,9.96
2017-09-16T03:03:47.487Z,9.97
2017-09-16T03:06:15.804Z,9.80
2017-09-16T03:08:44.145Z,9.96
2017-09-16T03:11:12.453Z,9.98
2017-09-16T03:13:40.766Z,10.02
2017-09-16T03:16:09.106Z,10.08
2017-09-16T03:18:37.422Z,10.01
2017-09-16T03:21:05.764Z,9.83
2017-09-16T03:23:34.074Z,9.89
2017-09-16T03:26:02.387Z,9.79
2017-09-16T03:28:31.487Z,9.86
2017-09-16T03:31:00.566Z,9.87
2017-09-16T03:33:29.676Z,9.88
2017-09-16T03:35:58.762Z,9.95
2017-09-16T03:38:27.907Z,9.95
2017-09-16T03:40:56.254Z,10.03
2017-09-16T03:43:25.326Z,9.99
2017-09-16T03:45:53.629Z,9.90
2017-09-16T03:48:22.741Z,9.98
2017-09-16T03:50:51.066Z,9.99
2017-09-16T03:53:19.387Z,9.87
2017-09-16T03:55:48.491Z,9.82
2017-09-16T03:58:16.821Z,9.74
2017-09-16T04:00:45.126Z,9.85
2017-09-16T04:03:13.462Z,9.71
2017-09-16T04:05:41.770Z,9.49
2017-09-16T04:08:10.087Z,9.47
2017-09-16T04:10:39.185Z,9.62
2017-09-16T04:13:08.263Z,9.41
2017-09-16T04:15:36.570Z,9.37
2017-09-16T04:18:04.915Z,9.11
2017-09-16T04:20:33.250Z,9.05
2017-09-16T04:23:01.562Z,9.09
2017-09-16T04:25:29.908Z,8.80
2017-09-16T04:27:58.220Z,8.36
2017-09-16T04:30:26.530Z,8.39
2017-09-16T04:32:55.630Z,8.56
2017-09-16T04:35:24.705Z,8.68
2017-09-16T04:37:53.010Z,8.85
2017-09-16T04:40:22.138Z,8.90
2017-09-16T04:42:50.441Z,9.00
2017-09-16T04:45:18.747Z,9.11
2017-09-16T04:47:47.088Z,9.21
2017-09-16T04:50:15.405Z,9.23
2017-09-16T04:52:43.718Z,9.27
2017-09-16T04:55:12.050Z,9.11
2017-09-16T04:57:40.363Z,9.19
2017-09-16T05:00:09.445Z,9.23
2017-09-16T05:02:37.786Z,9.23
2017-09-16T05:05:06.100Z,9.36
2017-09-16T05:07:34.423Z,9.16
2017-09-16T05:10:02.770Z,9.32
2017-09-16T05:12:31.846Z,9.33
2017-09-16T05:15:00.155Z,9.14
2017-09-16T05:17:29.250Z,9.16
2017-09-16T05:19:58.318Z,9.22
2017-09-16T05:22:26.650Z,9.29
2017-09-16T05:24:54.955Z,9.19
2017-09-16T05:27:23.305Z,9.05
2017-09-16T05:29:51.634Z,9.00
2017-09-16T05:32:20.207Z,9.00
2017-09-16T05:34:48.544Z,8.87
2017-09-16T05:37:16.862Z,9.04
2017-09-16T05:39:45.200Z,9.01
2017-09-16T05:42:14.274Z,9.13
2017-09-16T05:44:42.590Z,9.18
2017-09-16T05:47:10.938Z,9.18
2017-09-16T05:49:40.010Z,9.33
2017-09-16T05:52:08.346Z,9.50
2017-09-16T05:54:36.662Z,9.55
2017-09-16T05:57:04.970Z,9.62
2017-09-16T05:59:33.401Z,9.49
2017-09-16T06:02:01.710Z,9.51
2017-09-16T06:04:30.043Z,9.51
2017-09-16T06:06:58.357Z,9.31
2017-09-16T06:09:26.686Z,9.31
2017-09-16T06:11:55.794Z,9.43
2017-09-16T06:14:24.102Z,9.46
2017-09-16T06:16:52.414Z,9.39
2017-09-16T06:19:20.751Z,9.46
2017-09-16T06:21:49.073Z,9.16
2017-09-16T06:24:17.382Z,9.18
2017-09-16T06:26:46.483Z,9.27
2017-09-16T06:29:14.802Z,9.38
2017-09-16T06:31:43.117Z,9.46
2017-09-16T06:34:11.455Z,9.29
2017-09-16T06:36:39.779Z,9.11
2017-09-16T06:39:08.094Z,9.00
2017-09-16T06:41:36.450Z,8.93
2017-09-16T06:44:05.530Z,8.58
2017-09-16T06:46:33.836Z,8.58
2017-09-16T06:49:02.935Z,8.45
2017-09-16T06:51:32.034Z,8.44
2017-09-16T06:54:01.106Z,8.52
2017-09-16T06:56:29.417Z,8.59
2017-09-16T06:58:57.755Z,8.53
2017-09-16T07:01:26.061Z,8.58
2017-09-16T07:03:55.147Z,8.76
2017-09-16T07:06:23.494Z,8.69
2017-09-16T07:08:51.797Z,8.82
2017-09-16T07:11:20.102Z,8.70
2017-09-16T07:13:49.199Z,8.65
2017-09-16T07:16:18.286Z,8.94
2017-09-16T07:18:47.358Z,9.03
2017-09-16T07:21:15.704Z,9.16
2017-09-16T07:23:44.020Z,8.91
2017-09-16T07:26:12.342Z,9.06
2017-09-16T07:28:40.677Z,8.92
2017-09-16T07:31:08.985Z,8.81
2017-09-16T07:33:38.066Z,8.37
2017-09-16T07:36:06.404Z,8.74
2017-09-16T07:38:34.718Z,8.90
2017-09-16T07:41:03.030Z,8.83
2017-09-16T07:43:32.143Z,8.74
2017-09-16T07:46:00.469Z,8.71
2017-09-16T07:48:28.820Z,8.92
2017-09-16T07:50:57.127Z,9.09
2017-09-16T07:53:25.435Z,9.11
2017-09-16T07:55:54.550Z,8.97
2017-09-16T07:58:22.858Z,9.17
2017-09-16T08:00:51.166Z,9.37
2017-09-16T08:03:19.503Z,9.50
2017-09-16T08:05:47.811Z,9.64
2017-09-16T08:08:16.161Z,9.83
2017-09-16T08:10:44.472Z,9.95
2017-09-16T08:13:12.785Z,9.81
2017-09-16T08:15:41.891Z,9.98
2017-09-16T08:18:10.989Z,10.12
2017-09-16T08:20:40.074Z,10.03
2017-09-16T08:23:08.431Z,10.16
2017-09-16T08:25:36.744Z,9.87
2017-09-16T08:28:05.839Z,10.03
2017-09-16T08:30:35.425Z,9.95
2017-09-16T08:33:03.766Z,9.92
2017-09-16T08:35:32.075Z,10.20
2017-09-16T08:38:00.434Z,10.39
2017-09-16T08:40:28.754Z,10.48
2017-09-16T08:42:57.074Z,10.55
2017-09-16T08:45:25.419Z,10.59
2017-09-16T08:47:54.514Z,10.54
2017-09-16T08:50:22.830Z,10.38
2017-09-16T08:52:51.192Z,10.34
2017-09-16T08:55:20.274Z,10.70
2017-09-16T08:57:48.654Z,10.62
2017-09-16T09:00:17.054Z,10.64
2017-09-16T09:02:46.154Z,10.77
2017-09-16T09:05:15.291Z,10.61
2017-09-16T09:07:43.638Z,10.74
2017-09-16T09:10:12.759Z,10.87
2017-09-16T09:12:41.113Z,10.62
2017-09-16T09:15:09.599Z,10.35
2017-09-16T09:17:38.698Z,10.37
2017-09-16T09:20:08.069Z,10.49
2017-09-16T09:22:36.441Z,10.65
2017-09-16T09:25:04.761Z,10.64
2017-09-16T09:27:33.915Z,10.70
2017-09-16T09:30:02.287Z,10.67
2017-09-16T09:32:30.612Z,10.62
2017-09-16T09:34:59.728Z,10.64
2017-09-16T09:37:28.044Z,10.96
2017-09-16T09:39:56.443Z,10.78
2017-09-16T09:42:24.758Z,10.95
2017-09-16T09:44:53.887Z,11.07
2017-09-16T09:47:22.228Z,11.00
2017-09-16T09:49:51.314Z,11.12
2017-09-16T09:52:20.423Z,11.17
2017-09-16T09:54:49.505Z,11.27
2017-09-16T09:57:17.832Z,11.41
2017-09-16T09:59:46.174Z,11.77
2017-09-16T10:02:15.264Z,12.05
2017-09-16T10:04:44.355Z,12.23
2017-09-16T10:07:12.707Z,12.66
2017-09-16T10:09:41.127Z,12.75
2017-09-16T10:12:10.273Z,12.73
2017-09-16T10:14:38.622Z,12.37
2017-09-16T10:17:07.715Z,12.70
2017-09-16T10:19:36.809Z,12.90
2017-09-16T10:22:05.959Z,12.93
2017-09-16T10:24:34.429Z,13.21
2017-09-16T10:27:03.032Z,13.21
2017-09-16T10:29:31.400Z,13.36
2017-09-16T10:31:59.723Z,13.47
2017-09-16T10:34:28.257Z,13.44
2017-09-16T10:36:56.602Z,13.57
2017-09-16T10:39:25.698Z,13.53
2017-09-16T10:41:54.815Z,12.80
2017-09-16T10:44:23.153Z,12.99
2017-09-16T10:46:51.562Z,13.27
2017-09-16T10:49:20.671Z,13.59
2017-09-16T10:51:49.147Z,13.52
2017-09-16T10:54:19.920Z,13.31
2017-09-16T10:56:48.393Z,13.76
2017-09-16T10:59:16.882Z,13.71
2017-09-16T11:01:45.251Z,13.83
2017-09-16T11:04:13.734Z,13.59
2017-09-16T11:06:42.070Z,13.56
2017-09-16T11:09:10.402Z,13.76
2017-09-16T11:11:38.718Z,14.12
2017-09-16T11:14:07.266Z,14.39
2017-09-16T11:16:35.744Z,14.52
2017-09-16T11:19:04.189Z,14.39
2017-09-16T11:21:33.299Z,14.82
2017-09-16T11:24:02.503Z,14.88
2017-09-16T11:26:31.590Z,14.85
2017-09-16T11:29:00.792Z,14.59
2017-09-16T11:31:30.338Z,15.08
2017-09-16T11:33:58.851Z,15.03
2017-09-16T11:36:27.358Z,15.02
2017-09-16T11:38:56.522Z,15.17
2017-09-16T11:41:24.975Z,15.11
2017-09-16T11:43:53.326Z,15.20
2017-09-16T11:46:22.426Z,15.46
2017-09-16T11:48:51.606Z,15.17
2017-09-16T11:51:19.951Z,15.29
2017-09-16T11:53:48.276Z,15.53
2017-09-16T11:56:16.606Z,15.68
2017-09-16T11:58:44.952Z,15.76
2017-09-16T12:01:14.056Z,16.14
2017-09-16T12:03:43.169Z,16.08
2017-09-16T12:06:11.573Z,16.49
2017-09-16T12:08:39.890Z,17.02
2017-09-16T12:11:08.987Z,16.99
2017-09-16T12:13:38.103Z,17.54
2017-09-16T12:16:07.189Z,17.73
2017-09-16T12:18:36.276Z,17.59
2017-09-16T12:21:04.628Z,17.57
2017-09-16T12:23:32.948Z,17.50
2017-09-16T12:26:02.040Z,17.66
2017-09-16T12:28:30.389Z,17.64
2017-09-16T12:30:58.707Z,17.36
2017-09-16T12:33:27.803Z,16.90
2017-09-16T12:35:56.919Z,17.20
2017-09-16T12:38:26.039Z,17.44
2017-09-16T12:40:54.359Z,17.60
2017-09-16T12:43:22.733Z,17.52
2017-09-16T12:45:51.062Z,17.48
2017-09-16T12:48:19.383Z,17.52
2017-09-16T12:50:47.755Z,18.59
2017-09-16T12:53:16.075Z,19.63
2017-09-16T12:55:44.400Z,20.07
2017-09-16T12:58:12.749Z,20.70
2017-09-16T13:00:41.857Z,21.22
2017-09-16T13:03:10.943Z,20.35
2017-09-16T13:05:40.076Z,20.85
2017-09-16T13:08:08.403Z,21.06
2017-09-16T13:10:36.732Z,21.37
2017-09-16T13:13:05.071Z,21.33
2017-09-16T13:15:34.159Z,20.25
2017-09-16T13:18:02.478Z,20.46
2017-09-16T13:20:30.822Z,20.17
2017-09-16T13:22:59.136Z,19.96
2017-09-16T13:25:27.458Z,19.80
2017-09-16T13:27:55.809Z,19.82
2017-09-16T13:30:24.123Z,20.07
2017-09-16T13:32:53.220Z,19.84
2017-09-16T13:35:21.574Z,19.87
2017-09-16T13:37:49.911Z,20.28
2017-09-16T13:40:19.011Z,20.47
2017-09-16T13:42:47.387Z,21.16
2017-09-16T13:45:16.480Z,21.62
2017-09-16T13:47:45.574Z,21.56
2017-09-16T13:50:13.918Z,22.77
2017-09-16T13:52:42.246Z,23.76
2017-09-16T13:55:11.334Z,24.08
2017-09-16T13:57:40.455Z,25.04
2017-09-16T14:00:09.541Z,26.98
2017-09-16T14:02:38.630Z,26.79
2017-09-16T14:05:07.743Z,24.36
2017-09-16T14:07:36.825Z,25.80
2017-09-16T14:10:05.914Z,27.57
2017-09-16T14:12:34.284Z,26.79
2017-09-16T14:15:02.603Z,24.42
2017-09-16T14:17:31.003Z,23.45
2017-09-16T14:19:59.356Z,22.40
2017-09-16T14:22:28.447Z,22.04
2017-09-16T14:24:57.598Z,21.35
2017-09-16T14:27:25.942Z,22.13
2017-09-16T14:29:55.023Z,21.45
2017-09-16T14:32:24.108Z,21.25
2017-09-16T14:34:52.451Z,22.15
2017-09-16T14:37:20.765Z,22.51
2017-09-16T14:39:49.078Z,21.97
2017-09-16T14:42:17.422Z,21.46
2017-09-16T14:44:45.738Z,22.29
2017-09-16T14:47:14.102Z,23.65
2017-09-16T14:49:43.202Z,24.12
2017-09-16T14:52:12.283Z,23.21
2017-09-16T14:54:40.631Z,22.41
2017-09-16T14:57:08.951Z,21.35
2017-09-16T14:59:38.042Z,21.73
2017-09-16T15:02:06.388Z,22.56
2017-09-16T15:04:34.707Z,22.77
2017-09-16T15:07:03.823Z,22.47
2017-09-16T15:09:32.914Z,22.69
2017-09-16T15:12:01.995Z,22.55
2017-09-16T15:14:30.344Z,21.93
2017-09-16T15:16:58.678Z,21.30
2017-09-16T15:19:27.814Z,20.80
2017-09-16T15:21:56.130Z,20.07
2017-09-16T15:24:24.462Z,19.67
2017-09-16T15:26:52.809Z,19.26
2017-09-16T15:29:21.895Z,19.13
2017-09-16T15:31:50.215Z,19.37
2017-09-16T15:34:18.601Z,19.28
2017-09-16T15:36:46.928Z,19.61
2017-09-16T15:39:15.246Z,20.58
2017-09-16T15:41:43.587Z,21.40
2017-09-16T15:44:11.898Z,22.05
2017-09-16T15:46:40.222Z,23.07
2017-09-16T15:49:08.562Z,23.53
2017-09-16T15:51:36.889Z,24.07
2017-09-16T15:54:05.243Z,23.67
2017-09-16T15:56:33.563Z,24.18
2017-09-16T15:59:01.886Z,23.03
2017-09-16T16:01:30.227Z,21.89
2017-09-16T16:03:58.554Z,20.94
2017-09-16T16:06:26.870Z,20.58
2017-09-16T16:08:55.211Z,19.77
2017-09-16T16:11:23.532Z,19.62
2017-09-16T16:13:51.878Z,19.78
2017-09-16T16:16:20.260Z,19.48
2017-09-16T16:18:48.575Z,19.42
2017-09-16T16:21:16.917Z,19.77
2017-09-16T16:39:01.539Z,21.46
2017-09-16T16:41:29.860Z,21.08
2017-09-16T16:43:58.185Z,20.12
2017-09-16T16:46:26.530Z,19.99
2017-09-16T16:48:54.842Z,19.78
2017-09-16T16:51:23.166Z,19.27
2017-09-16T16:53:52.288Z,18.31
2017-09-16T16:56:20.611Z,17.61
2017-09-16T16:58:48.931Z,17.18
2017-09-16T17:01:17.293Z,16.56
2017-09-16T17:03:46.378Z,16.52
2017-09-16T17:06:14.704Z,16.10
2017-09-16T17:08:43.048Z,15.56
2017-09-16T17:11:12.132Z,15.62
2017-09-16T17:13:40.447Z,15.12
2017-09-16T17:16:08.800Z,14.77
2017-09-16T17:18:37.884Z,14.32
2017-09-16T17:21:06.194Z,14.31
2017-09-16T17:23:35.306Z,14.63
2017-09-16T17:26:03.619Z,14.71
2017-09-16T17:28:31.942Z,14.72
2017-09-16T17:31:01.051Z,14.69
2017-09-16T17:33:30.146Z,14.76
2017-09-16T17:35:59.230Z,14.69
2017-09-16T17:38:28.334Z,14.80
2017-09-16T17:40:57.423Z,14.84
2017-09-16T17:43:25.739Z,14.74
2017-09-16T17:45:54.078Z,14.69
2017-09-16T17:48:22.399Z,14.53
2017-09-16T17:50:50.739Z,14.42
2017-09-16T17:53:19.834Z,14.33
2017-09-16T17:55:48.156Z,14.31
2017-09-16T17:58:16.515Z,14.19
2017-09-16T18:00:44.850Z,14.11
2017-09-16T18:03:13.202Z,13.99
2017-09-16T18:05:41.514Z,13.75
2017-09-16T18:08:09.826Z,13.58
2017-09-16T18:10:38.930Z,13.61
2017-09-16T18:13:07.248Z,13.39
2017-09-16T18:15:35.586Z,13.21
2017-09-16T18:18:04.702Z,13.08
2017-09-16T18:20:33.030Z,13.11
2017-09-16T18:23:01.355Z,13.14
2017-09-16T18:25:29.698Z,13.18
2017-09-16T18:27:58.014Z,13.18
2017-09-16T18:30:26.340Z,13.18
2017-09-16T18:32:54.687Z,13.16
2017-09-16T18:35:23.002Z,13.20
2017-09-16T18:37:51.354Z,13.23
2017-09-16T18:40:19.680Z,13.18
2017-09-16T18:42:47.998Z,13.13
2017-09-16T18:45:16.340Z,12.79
2017-09-16T18:47:44.668Z,12.88
2017-09-16T18:50:12.998Z,12.85
2017-09-16T18:52:41.342Z,12.71
2017-09-16T18:55:09.667Z,12.79
2017-09-16T18:57:38.766Z,12.82
2017-09-16T19:00:07.875Z,12.81
2017-09-16T19:02:36.966Z,12.78
2017-09-16T19:05:06.050Z,12.71
2017-09-16T19:07:34.390Z,12.57
2017-09-16T19:10:02.712Z,12.49
2017-09-16T19:12:31.026Z,12.54
2017-09-16T19:14:59.371Z,12.56
2017-09-16T19:17:27.702Z,12.61
2017-09-16T19:19:56.015Z,12.28
2017-09-16T19:22:24.363Z,12.33
2017-09-16T19:24:52.686Z,12.26
2017-09-16T19:27:21.021Z,12.21
2017-09-16T19:29:49.363Z,12.21
2017-09-16T19:32:18.459Z,12.13
2017-09-16T19:34:47.535Z,12.09
2017-09-16T19:37:15.874Z,11.94
2017-09-16T19:39:44.188Z,11.88
2017-09-16T19:42:12.503Z,11.82
2017-09-16T19:44:41.615Z,11.46
2017-09-16T19:47:09.940Z,11.11
2017-09-16T19:49:38.291Z,11.25
2017-09-16T19:52:06.639Z,11.24
2017-09-16T19:54:35.737Z,11.21
2017-09-16T19:57:04.826Z,11.14
2017-09-16T19:59:33.950Z,11.17
2017-09-16T20:02:02.267Z,11.22
2017-09-16T20:04:30.586Z,11.20
2017-09-16T20:06:59.694Z,11.05
2017-09-16T20:09:28.775Z,10.80
2017-09-16T20:11:57.095Z,10.78
2017-09-16T20:14:25.435Z,10.83
2017-09-16T20:16:54.534Z,10.89
2017-09-16T20:19:23.628Z,10.87
2017-09-16T20:21:52.757Z,10.86
2017-09-16T20:24:21.071Z,10.82
2017-09-16T20:26:49.393Z,10.81
2017-09-16T20:29:18.499Z,10.65
2017-09-16T20:31:47.578Z,10.63
2017-09-16T20:34:15.894Z,10.38
2017-09-16T20:36:44.233Z,10.06
2017-09-16T20:39:12.542Z,10.12
2017-09-16T20:41:41.648Z,10.24
2017-09-16T20:44:10.049Z,10.10
2017-09-16T20:46:38.366Z,10.10
2017-09-16T20:49:06.746Z,10.11
2017-09-16T20:51:35.062Z,10.15
2017-09-16T20:54:04.144Z,10.09
2017-09-16T20:56:33.223Z,10.06
2017-09-16T20:59:01.558Z,9.86
2017-09-16T21:01:29.874Z,9.62
2017-09-16T21:03:58.208Z,9.84
2017-09-16T21:06:26.515Z,9.98
2017-09-16T21:08:54.818Z,9.99
2017-09-16T21:11:23.158Z,10.03
2017-09-16T21:13:51.477Z,10.07
2017-09-16T21:16:19.790Z,10.01
2017-09-16T21:18:48.894Z,10.07
2017-09-16T21:21:17.224Z,10.15
2017-09-16T21:23:45.546Z,10.15
2017-09-16T21:26:14.650Z,9.84
2017-09-16T21:28:43.715Z,9.98
2017-09-16T21:31:12.035Z,9.91
2017-09-16T21:33:40.371Z,10.01
2017-09-16T21:36:08.690Z,10.21
2017-09-16T21:38:37.046Z,10.29
2017-09-16T21:41:06.126Z,10.48
2017-09-16T21:43:34.466Z,10.53
2017-09-16T21:46:02.809Z,10.64
2017-09-16T21:48:31.905Z,10.67
2017-09-16T21:51:01.023Z,10.69
2017-09-16T21:53:29.350Z,10.67
2017-09-16T21:55:57.667Z,10.64
2017-09-16T21:58:26.780Z,10.76
2017-09-16T22:00:55.125Z,10.76
2017-09-16T22:03:23.441Z,10.81
2017-09-16T22:05:51.790Z,10.71
2017-09-16T22:08:20.119Z,10.72
2017-09-16T22:10:48.442Z,10.62
2017-09-16T22:13:16.794Z,10.53
2017-09-16T22:15:45.116Z,10.49
2017-09-16T22:18:14.207Z,10.60
2017-09-16T22:20:42.560Z,10.42
2017-09-16T22:23:10.885Z,10.38
2017-09-16T22:25:39.980Z,10.51
2017-09-16T22:28:09.110Z,10.61
2017-09-16T22:30:37.478Z,10.69
2017-09-16T22:33:05.799Z,10.76
2017-09-16T22:35:34.148Z,10.65
2017-09-16T22:38:02.462Z,10.58
2017-09-16T22:40:30.795Z,10.60
2017-09-16T22:42:59.142Z,10.66
2017-09-16T22:45:27.471Z,10.75
2017-09-16T22:47:55.786Z,10.80
2017-09-16T22:50:24.138Z,10.46
2017-09-16T22:52:52.490Z,10.13
2017-09-16T22:55:20.803Z,9.55
2017-09-16T22:57:49.169Z,9.87
2017-09-16T23:00:17.485Z,10.11
2017-09-16T23:02:45.801Z,10.07
2017-09-16T23:05:14.905Z,10.20
2017-09-16T23:07:43.269Z,10.32
2017-09-16T23:10:12.356Z,10.26
2017-09-16T23:12:40.704Z,10.34
2017-09-16T23:15:09.059Z,10.21
2017-09-16T23:17:37.382Z,10.18
2017-09-16T23:20:05.723Z,10.30
2017-09-16T23:22:34.054Z,10.13
2017-09-16T23:25:02.369Z,10.01
2017-09-16T23:27:30.709Z,9.87
2017-09-16T23:29:59.037Z,9.82
2017-09-16T23:32:27.346Z,9.85
2017-09-16T23:34:55.690Z,9.95
2017-09-16T23:37:24.243Z,10.01
2017-09-16T23:39:52.907Z,10.13
2017-09-16T23:42:22.301Z,10.07
2017-09-16T23:44:50.956Z,10.04
2017-09-16T23:47:19.563Z,10.15
2017-09-16T23:49:48.169Z,10.18
2017-09-16T23:52:17.566Z,10.12
2017-09-16T23:54:46.072Z,9.66
2017-09-16T23:57:14.553Z,9.81
2017-09-16T23:59:43.118Z,9.93
